createdAt,value
2018-01-15T00:00:23.304Z,84.61
2018-01-15T00:01:23.276Z,84.9
2018-01-15T00:02:23.246Z,84.61
2018-01-15T00:03:23.216Z,84.61
2018-01-15T00:04:23.187Z,84.42
2018-01-15T00:05:23.159Z,84.9
2018-01-15T00:06:23.125Z,84.81
2018-01-15T00:07:23.101Z,84.71
2018-01-15T00:08:22.824Z,84.81
2018-01-15T00:09:23.050Z,84.81
2018-01-15T00:10:23.012Z,84.81
2018-01-15T00:11:22.984Z,84.9
2018-01-15T00:12:22.960Z,85
2018-01-15T00:13:22.677Z,84.81
2018-01-15T00:14:22.648Z,84.9
2018-01-15T00:15:22.866Z,84.81
2018-01-15T00:16:22.840Z,84.9
2018-01-15T00:17:22.563Z,84.9
2018-01-15T00:18:22.534Z,84.81
2018-01-15T00:19:22.751Z,84.81
2018-01-15T00:20:22.725Z,84.71
2018-01-15T00:21:22.694Z,84.71
2018-01-15T00:22:22.673Z,84.9
2018-01-15T00:23:22.646Z,85
2018-01-15T00:24:22.622Z,84.81
2018-01-15T00:25:22.598Z,84.71
2018-01-15T00:26:22.579Z,84.61
2018-01-15T00:27:22.555Z,84.71
2018-01-15T00:28:22.529Z,85
2018-01-15T00:29:22.511Z,84.9
2018-01-15T00:30:22.486Z,84.9
2018-01-15T00:31:22.459Z,84.81
2018-01-15T00:32:22.437Z,84.61
2018-01-15T00:33:22.421Z,84.81
2018-01-15T00:34:22.392Z,84.9
2018-01-15T00:35:22.369Z,84.81
2018-01-15T00:36:22.352Z,84.9
2018-01-15T00:37:22.325Z,84.71
2018-01-15T00:38:22.299Z,84.9
2018-01-15T00:39:22.027Z,84.71
2018-01-15T00:40:22.246Z,84.71
2018-01-15T00:41:22.221Z,84.9
2018-01-15T00:42:22.193Z,84.81
2018-01-15T00:43:22.171Z,84.71
2018-01-15T00:44:22.140Z,84.9
2018-01-15T00:45:22.117Z,84.9
2018-01-15T00:46:22.090Z,84.81
2018-01-15T00:47:22.062Z,84.71
2018-01-15T00:48:22.030Z,84.9
2018-01-15T00:49:22.014Z,84.9
2018-01-15T00:50:21.984Z,84.94
2018-01-15T00:51:21.713Z,84.28
2018-01-15T00:52:21.935Z,84.66
2018-01-15T00:53:21.905Z,84.28
2018-01-15T00:54:21.639Z,84.47
2018-01-15T00:55:21.613Z,84.38
2018-01-15T00:56:21.839Z,84.09
2018-01-15T00:57:21.811Z,84
2018-01-15T00:58:21.787Z,84
2018-01-15T00:59:21.518Z,84.19
2018-01-15T01:00:21.495Z,84.66
2018-01-15T01:01:21.714Z,83.71
2018-01-15T01:02:21.699Z,83.71
2018-01-15T01:03:21.423Z,83.62
2018-01-15T01:04:21.645Z,83.62
2018-01-15T01:05:21.623Z,83.71
2018-01-15T01:06:21.605Z,83.52
2018-01-15T01:07:21.328Z,83.71
2018-01-15T01:08:21.306Z,83.71
2018-01-15T01:09:21.637Z,83.33
2018-01-15T01:10:21.270Z,83.52
2018-01-15T01:11:21.247Z,83.52
2018-01-15T01:12:21.225Z,83.62
2018-01-15T01:13:21.202Z,83.62
2018-01-15T01:14:21.418Z,83.62
2018-01-15T01:15:21.392Z,83.52
2018-01-15T01:16:21.366Z,83.14
2018-01-15T01:17:21.339Z,83.52
2018-01-15T01:18:21.312Z,83.43
2018-01-15T01:19:21.284Z,83.33
2018-01-15T01:20:21.261Z,83.52
2018-01-15T01:21:21.239Z,83.33
2018-01-15T01:22:21.211Z,83.71
2018-01-15T01:23:21.184Z,83.62
2018-01-15T01:24:21.163Z,83.71
2018-01-15T01:25:21.130Z,83.71
2018-01-15T01:26:21.104Z,83.62
2018-01-15T01:27:21.075Z,83.62
2018-01-15T01:28:21.045Z,83.62
2018-01-15T01:29:20.774Z,83.71
2018-01-15T01:30:20.997Z,83.62
2018-01-15T01:31:20.720Z,83.43
2018-01-15T01:32:20.941Z,83.62
2018-01-15T01:33:20.915Z,83.43
2018-01-15T01:34:20.639Z,83.52
2018-01-15T01:35:20.857Z,83.62
2018-01-15T01:36:20.831Z,83.62
2018-01-15T01:37:20.803Z,83.52
2018-01-15T01:38:20.781Z,83.43
2018-01-15T01:39:20.509Z,83.43
2018-01-15T01:40:20.732Z,83.52
2018-01-15T01:41:20.702Z,83.52
2018-01-15T01:42:20.428Z,83.52
2018-01-15T01:43:20.652Z,83.24
2018-01-15T01:44:20.632Z,83.43
2018-01-15T01:45:20.606Z,83.43
2018-01-15T01:46:20.578Z,83.71
2018-01-15T01:47:20.553Z,83.62
2018-01-15T01:48:20.529Z,83.9
2018-01-15T01:49:20.504Z,83.62
2018-01-15T01:50:20.478Z,83.81
2018-01-15T01:51:20.450Z,83.62
2018-01-15T01:52:20.181Z,83.81
2018-01-15T01:53:20.402Z,83.81
2018-01-15T01:54:20.377Z,84.28
2018-01-15T01:55:20.349Z,84
2018-01-15T01:56:20.328Z,84
2018-01-15T01:57:20.299Z,84
2018-01-15T01:58:20.276Z,83.9
2018-01-15T01:59:20.008Z,84.56
2018-01-15T02:00:20.335Z,84.56
2018-01-15T02:01:19.960Z,84.38
2018-01-15T02:02:20.183Z,84.47
2018-01-15T02:03:20.155Z,84.47
2018-01-15T02:04:20.125Z,84.38
2018-01-15T02:05:19.853Z,84.38
2018-01-15T02:06:20.075Z,84.38
2018-01-15T02:07:20.041Z,84.56
2018-01-15T02:08:20.026Z,84.81
2018-01-15T02:09:19.740Z,84.61
2018-01-15T02:10:19.965Z,84.66
2018-01-15T02:11:19.686Z,84.61
2018-01-15T02:12:19.907Z,84.71
2018-01-15T02:13:19.880Z,84.81
2018-01-15T02:14:19.853Z,84.71
2018-01-15T02:15:19.820Z,84.61
2018-01-15T02:16:19.546Z,85.09
2018-01-15T02:17:19.769Z,85.28
2018-01-15T02:18:19.734Z,84.71
2018-01-15T02:19:19.707Z,84.9
2018-01-15T02:20:19.673Z,85
2018-01-15T02:21:19.654Z,85.66
2018-01-15T02:22:19.619Z,85.09
2018-01-15T02:23:19.594Z,85.66
2018-01-15T02:24:19.570Z,85.57
2018-01-15T02:25:19.532Z,85.47
2018-01-15T02:26:19.504Z,85.57
2018-01-15T02:27:19.477Z,85.66
2018-01-15T02:28:19.448Z,85.66
2018-01-15T02:29:19.420Z,85.57
2018-01-15T02:30:19.395Z,85.57
2018-01-15T02:31:19.368Z,85.57
2018-01-15T02:32:19.390Z,85.57
2018-01-15T02:33:19.318Z,85.66
2018-01-15T02:34:19.286Z,85.66
2018-01-15T02:35:19.259Z,85.66
2018-01-15T02:36:19.236Z,85.85
2018-01-15T02:37:19.200Z,86.32
2018-01-15T02:38:19.178Z,86.22
2018-01-15T02:39:19.150Z,85.85
2018-01-15T02:40:19.122Z,86.41
2018-01-15T02:41:19.099Z,85.85
2018-01-15T02:42:19.077Z,86.13
2018-01-15T02:43:19.048Z,86.22
2018-01-15T02:44:19.024Z,86.32
2018-01-15T02:45:18.998Z,86.22
2018-01-15T02:46:18.722Z,86.13
2018-01-15T02:47:18.943Z,86.22
2018-01-15T02:48:18.918Z,86.13
2018-01-15T02:49:18.892Z,85.94
2018-01-15T02:50:18.927Z,85.75
2018-01-15T02:51:18.842Z,85.85
2018-01-15T02:52:18.818Z,85.89
2018-01-15T02:53:18.791Z,86.04
2018-01-15T02:54:18.770Z,85.99
2018-01-15T02:55:18.490Z,85.75
2018-01-15T02:56:18.459Z,85.85
2018-01-15T02:57:18.682Z,86.36
2018-01-15T02:58:18.648Z,86.32
2018-01-15T02:59:18.623Z,86.18
2018-01-15T03:00:18.751Z,86.13
2018-01-15T03:01:18.318Z,86.18
2018-01-15T03:02:18.293Z,86.18
2018-01-15T03:03:18.518Z,86.18
2018-01-15T03:04:18.246Z,86.27
2018-01-15T03:05:18.462Z,85.89
2018-01-15T03:06:18.431Z,85.7
2018-01-15T03:07:18.409Z,85.99
2018-01-15T03:08:18.386Z,85.61
2018-01-15T03:09:18.360Z,85.61
2018-01-15T03:10:18.332Z,86.08
2018-01-15T03:11:18.061Z,85.99
2018-01-15T03:12:18.282Z,85.8
2018-01-15T03:13:18.263Z,85.8
2018-01-15T03:14:18.230Z,85.89
2018-01-15T03:15:18.207Z,85.99
2018-01-15T03:16:18.178Z,85.89
2018-01-15T03:17:18.155Z,85.7
2018-01-15T03:18:17.886Z,86.36
2018-01-15T03:19:17.862Z,85.99
2018-01-15T03:20:17.840Z,86.36
2018-01-15T03:21:18.065Z,86.18
2018-01-15T03:22:17.794Z,86.18
2018-01-15T03:23:18.017Z,86.27
2018-01-15T03:24:17.992Z,86.55
2018-01-15T03:25:17.969Z,86.93
2018-01-15T03:26:17.705Z,86.93
2018-01-15T03:27:17.930Z,86.74
2018-01-15T03:28:17.659Z,86.46
2018-01-15T03:29:17.628Z,86.74
2018-01-15T03:30:17.852Z,86.93
2018-01-15T03:31:17.823Z,86.93
2018-01-15T03:32:17.798Z,86.93
2018-01-15T03:33:17.760Z,86.93
2018-01-15T03:34:17.730Z,86.83
2018-01-15T03:35:17.706Z,87.02
2018-01-15T03:36:17.677Z,86.55
2018-01-15T03:37:17.647Z,86.93
2018-01-15T03:38:17.373Z,86.93
2018-01-15T03:39:17.591Z,86.55
2018-01-15T03:40:17.315Z,86.36
2018-01-15T03:41:17.534Z,86.55
2018-01-15T03:42:17.257Z,86.08
2018-01-15T03:43:17.482Z,86.08
2018-01-15T03:44:17.456Z,86.18
2018-01-15T03:45:17.423Z,86.18
2018-01-15T03:46:17.392Z,86.36
2018-01-15T03:47:17.364Z,85.8
2018-01-15T03:48:17.092Z,85.7
2018-01-15T03:49:17.310Z,85.7
2018-01-15T03:50:17.278Z,86.03
2018-01-15T03:51:17.252Z,86.12
2018-01-15T03:52:17.228Z,85.89
2018-01-15T03:53:17.198Z,85.55
2018-01-15T03:54:17.172Z,85.74
2018-01-15T03:55:17.140Z,85.84
2018-01-15T03:56:17.112Z,85.84
2018-01-15T03:57:16.841Z,85.74
2018-01-15T03:58:17.062Z,85.74
2018-01-15T03:59:17.032Z,85.84
2018-01-15T04:00:17.001Z,85.27
2018-01-15T04:01:16.980Z,85.27
2018-01-15T04:02:16.701Z,85.65
2018-01-15T04:03:16.921Z,85.55
2018-01-15T04:04:16.891Z,85.55
2018-01-15T04:05:16.861Z,85.55
2018-01-15T04:06:16.834Z,85.46
2018-01-15T04:07:16.807Z,85.46
2018-01-15T04:08:16.778Z,85.17
2018-01-15T04:09:16.502Z,85.17
2018-01-15T04:10:16.723Z,85.27
2018-01-15T04:11:16.694Z,85.74
2018-01-15T04:12:16.664Z,85.55
2018-01-15T04:13:16.637Z,85.65
2018-01-15T04:14:16.606Z,85.65
2018-01-15T04:15:16.580Z,85.65
2018-01-15T04:16:16.308Z,85.74
2018-01-15T04:17:16.525Z,85.65
2018-01-15T04:18:16.498Z,85.65
2018-01-15T04:19:16.476Z,85.65
2018-01-15T04:20:16.497Z,85.46
2018-01-15T04:21:16.414Z,84.99
2018-01-15T04:22:16.382Z,85.65
2018-01-15T04:23:16.353Z,85.65
2018-01-15T04:24:16.339Z,85.65
2018-01-15T04:25:16.298Z,85.74
2018-01-15T04:26:16.267Z,85.65
2018-01-15T04:27:16.242Z,85.36
2018-01-15T04:28:16.210Z,85.17
2018-01-15T04:29:16.181Z,85.36
2018-01-15T04:30:16.153Z,85.65
2018-01-15T04:31:16.125Z,85.55
2018-01-15T04:32:16.100Z,85.46
2018-01-15T04:33:16.071Z,85.55
2018-01-15T04:34:16.045Z,85.55
2018-01-15T04:35:16.014Z,86.12
2018-01-15T04:36:15.988Z,85.27
2018-01-15T04:37:15.951Z,85.93
2018-01-15T04:38:15.924Z,85.74
2018-01-15T04:39:15.895Z,85.84
2018-01-15T04:40:15.865Z,85.74
2018-01-15T04:41:15.839Z,85.93
2018-01-15T04:42:15.812Z,86.12
2018-01-15T04:43:15.785Z,86.12
2018-01-15T04:44:15.755Z,85.84
2018-01-15T04:45:15.735Z,86.03
2018-01-15T04:46:15.699Z,85.74
2018-01-15T04:47:15.673Z,86.31
2018-01-15T04:48:15.399Z,86.22
2018-01-15T04:49:15.622Z,86.22
2018-01-15T04:50:15.345Z,86.12
2018-01-15T04:51:15.561Z,86.22
2018-01-15T04:52:15.565Z,86.03
2018-01-15T04:53:15.264Z,85.93
2018-01-15T04:54:15.481Z,86.41
2018-01-15T04:55:15.205Z,86.41
2018-01-15T04:56:15.428Z,86.5
2018-01-15T04:57:15.153Z,86.03
2018-01-15T04:58:15.369Z,86.22
2018-01-15T04:59:15.344Z,86.41
2018-01-15T05:00:15.317Z,86.31
2018-01-15T05:01:15.286Z,86.5
2018-01-15T05:02:15.260Z,86.6
2018-01-15T05:03:15.230Z,86.12
2018-01-15T05:04:15.204Z,86.12
2018-01-15T05:05:15.177Z,86.22
2018-01-15T05:06:15.149Z,86.22
2018-01-15T05:07:14.872Z,86.69
2018-01-15T05:08:14.845Z,86.88
2018-01-15T05:09:15.061Z,86.88
2018-01-15T05:10:15.034Z,86.79
2018-01-15T05:11:15.059Z,86.79
2018-01-15T05:12:14.981Z,86.6
2018-01-15T05:13:14.953Z,86.79
2018-01-15T05:14:14.926Z,86.79
2018-01-15T05:15:14.895Z,86.6
2018-01-15T05:16:14.869Z,86.6
2018-01-15T05:17:14.840Z,86.6
2018-01-15T05:18:14.812Z,86.79
2018-01-15T05:19:14.784Z,86.69
2018-01-15T05:20:14.515Z,86.79
2018-01-15T05:21:14.814Z,86.69
2018-01-15T05:22:14.704Z,86.79
2018-01-15T05:23:14.675Z,86.5
2018-01-15T05:24:14.653Z,86.6
2018-01-15T05:25:14.372Z,86.69
2018-01-15T05:26:14.592Z,86.5
2018-01-15T05:27:14.564Z,86.79
2018-01-15T05:28:14.295Z,86.5
2018-01-15T05:29:14.518Z,86.79
2018-01-15T05:30:14.486Z,86.6
2018-01-15T05:31:14.452Z,86.69
2018-01-15T05:32:14.423Z,86.69
2018-01-15T05:33:14.393Z,86.79
2018-01-15T05:34:14.365Z,86.5
2018-01-15T05:35:14.336Z,86.6
2018-01-15T05:36:14.311Z,86.88
2018-01-15T05:37:14.289Z,86.6
2018-01-15T05:38:14.359Z,86.5
2018-01-15T05:39:14.226Z,86.98
2018-01-15T05:40:13.954Z,86.6
2018-01-15T05:41:14.172Z,86.83
2018-01-15T05:42:13.898Z,86.83
2018-01-15T05:43:14.122Z,86.74
2018-01-15T05:44:14.088Z,86.74
2018-01-15T05:45:14.062Z,86.74
2018-01-15T05:46:14.030Z,86.83
2018-01-15T05:47:14.007Z,87.02
2018-01-15T05:48:13.976Z,86.45
2018-01-15T05:49:13.705Z,86.83
2018-01-15T05:50:13.923Z,86.83
2018-01-15T05:51:13.894Z,86.45
2018-01-15T05:52:13.871Z,86.45
2018-01-15T05:53:13.846Z,86.45
2018-01-15T05:54:13.813Z,86.83
2018-01-15T05:55:13.782Z,86.83
2018-01-15T05:56:13.514Z,86.74
2018-01-15T05:57:13.730Z,86.64
2018-01-15T05:58:13.703Z,86.64
2018-01-15T05:59:13.426Z,86.83
2018-01-15T06:00:13.646Z,87.02
2018-01-15T06:01:13.618Z,86.64
2018-01-15T06:02:13.594Z,86.55
2018-01-15T06:03:13.314Z,86.74
2018-01-15T06:04:13.534Z,86.83
2018-01-15T06:05:13.502Z,86.55
2018-01-15T06:06:13.475Z,86.64
2018-01-15T06:07:13.226Z,86.74
2018-01-15T06:08:13.422Z,86.64
2018-01-15T06:09:13.148Z,86.74
2018-01-15T06:10:13.369Z,86.83
2018-01-15T06:11:13.341Z,86.83
2018-01-15T06:12:13.311Z,86.83
2018-01-15T06:13:13.282Z,86.83
2018-01-15T06:14:13.257Z,86.97
2018-01-15T06:15:12.980Z,86.16
2018-01-15T06:16:13.198Z,86.97
2018-01-15T06:17:13.175Z,86.02
2018-01-15T06:18:12.901Z,86.3
2018-01-15T06:19:13.112Z,86.21
2018-01-15T06:20:13.088Z,86.21
2018-01-15T06:21:13.060Z,86.21
2018-01-15T06:22:13.033Z,86.21
2018-01-15T06:23:13.008Z,86.21
2018-01-15T06:24:12.975Z,86.11
2018-01-15T06:25:12.948Z,86.3
2018-01-15T06:26:12.923Z,86.4
2018-01-15T06:27:12.894Z,86.3
2018-01-15T06:28:12.874Z,86.3
2018-01-15T06:29:12.842Z,86.3
2018-01-15T06:30:12.811Z,86.3
2018-01-15T06:31:12.537Z,86.3
2018-01-15T06:32:12.754Z,86.3
2018-01-15T06:33:12.731Z,86.4
2018-01-15T06:34:12.700Z,86.02
2018-01-15T06:35:12.673Z,86.11
2018-01-15T06:36:12.401Z,86.3
2018-01-15T06:37:12.624Z,86.21
2018-01-15T06:38:12.590Z,86.11
2018-01-15T06:39:12.560Z,86.3
2018-01-15T06:40:12.538Z,86.11
2018-01-15T06:41:12.509Z,86.21
2018-01-15T06:42:12.483Z,86.64
2018-01-15T06:43:12.453Z,86.87
2018-01-15T06:44:12.525Z,86.64
2018-01-15T06:45:12.396Z,86.74
2018-01-15T06:46:12.369Z,86.74
2018-01-15T06:47:12.343Z,86.55
2018-01-15T06:48:12.314Z,86.26
2018-01-15T06:49:12.289Z,86.55
2018-01-15T06:50:12.260Z,87.3
2018-01-15T06:51:12.233Z,87.02
2018-01-15T06:52:12.202Z,87.49
2018-01-15T06:53:12.229Z,87.3
2018-01-15T06:54:11.900Z,87.21
2018-01-15T06:55:12.119Z,86.93
2018-01-15T06:56:12.093Z,87.3
2018-01-15T06:57:11.930Z,87.21
2018-01-15T06:58:11.989Z,87.68
2018-01-15T06:59:12.005Z,87.59
2018-01-15T07:00:11.976Z,87.49
2018-01-15T07:01:11.948Z,88.16
2018-01-15T07:02:11.919Z,88.06
2018-01-15T07:03:11.893Z,88.25
2018-01-15T07:04:11.618Z,88.16
2018-01-15T07:05:11.836Z,88.06
2018-01-15T07:06:11.806Z,88.16
2018-01-15T07:07:11.781Z,87.87
2018-01-15T07:08:11.751Z,87.97
2018-01-15T07:09:11.721Z,88.73
2018-01-15T07:10:11.695Z,88.35
2018-01-15T07:11:11.671Z,88.16
2018-01-15T07:12:11.634Z,88.35
2018-01-15T07:13:11.607Z,88.16
2018-01-15T07:14:11.581Z,88.25
2018-01-15T07:15:11.548Z,88.25
2018-01-15T07:16:11.278Z,88.25
2018-01-15T07:17:11.247Z,88.25
2018-01-15T07:18:11.466Z,88.44
2018-01-15T07:19:11.437Z,88.35
2018-01-15T07:20:11.410Z,88.06
2018-01-15T07:21:11.405Z,88.06
2018-01-15T07:22:11.352Z,88.44
2018-01-15T07:23:11.320Z,88.54
2018-01-15T07:24:11.294Z,88.44
2018-01-15T07:25:11.264Z,88.92
2018-01-15T07:26:11.234Z,88.92
2018-01-15T07:27:11.215Z,88.82
2018-01-15T07:28:11.179Z,88.54
2018-01-15T07:29:11.156Z,88.73
2018-01-15T07:30:11.121Z,88.54
2018-01-15T07:31:11.092Z,88.82
2018-01-15T07:32:11.065Z,88.44
2018-01-15T07:33:11.037Z,88.73
2018-01-15T07:34:11.009Z,88.82
2018-01-15T07:35:10.977Z,88.63
2018-01-15T07:36:10.947Z,88.54
2018-01-15T07:37:10.919Z,88.82
2018-01-15T07:38:10.895Z,88.73
2018-01-15T07:39:10.862Z,88.63
2018-01-15T07:40:10.834Z,88.63
2018-01-15T07:41:10.812Z,88.63
2018-01-15T07:42:10.779Z,88.82
2018-01-15T07:43:10.750Z,88.82
2018-01-15T07:44:10.476Z,88.82
2018-01-15T07:45:10.448Z,88.92
2018-01-15T07:46:10.661Z,88.44
2018-01-15T07:47:10.565Z,88.54
2018-01-15T07:48:10.608Z,88.92
2018-01-15T07:49:10.612Z,88.92
2018-01-15T07:50:10.557Z,88.44
2018-01-15T07:51:10.522Z,88.92
2018-01-15T07:52:10.500Z,88.82
2018-01-15T07:53:10.223Z,88.92
2018-01-15T07:54:10.436Z,88.63
2018-01-15T07:55:10.411Z,88.73
2018-01-15T07:56:10.380Z,88.54
2018-01-15T07:57:10.107Z,88.63
2018-01-15T07:58:10.326Z,88.63
2018-01-15T07:59:10.295Z,88.92
2018-01-15T08:00:10.025Z,88.92
2018-01-15T08:01:10.241Z,88.77
2018-01-15T08:02:10.213Z,88.73
2018-01-15T08:03:10.236Z,88.44
2018-01-15T08:04:10.157Z,88.68
2018-01-15T08:05:10.132Z,88.77
2018-01-15T08:06:09.854Z,88.77
2018-01-15T08:07:10.074Z,88.77
2018-01-15T08:08:10.045Z,88.77
2018-01-15T08:09:10.019Z,88.82
2018-01-15T08:10:09.997Z,88.77
2018-01-15T08:11:09.968Z,88.96
2018-01-15T08:12:09.696Z,89.06
2018-01-15T08:13:09.912Z,89.06
2018-01-15T08:14:09.642Z,88.39
2018-01-15T08:15:09.866Z,88.58
2018-01-15T08:16:09.869Z,88.77
2018-01-15T08:17:09.808Z,88.2
2018-01-15T08:18:09.786Z,88.29
2018-01-15T08:19:09.805Z,88.39
2018-01-15T08:20:09.738Z,88.58
2018-01-15T08:21:09.456Z,88.48
2018-01-15T08:22:09.430Z,88.48
2018-01-15T08:23:09.658Z,88.2
2018-01-15T08:24:09.793Z,88.39
2018-01-15T08:25:09.597Z,88.2
2018-01-15T08:26:09.325Z,88.01
2018-01-15T08:27:09.545Z,88.01
2018-01-15T08:28:09.520Z,88.01
2018-01-15T08:29:09.558Z,87.82
2018-01-15T08:30:09.489Z,88.1
2018-01-15T08:31:09.442Z,87.73
2018-01-15T08:32:10.076Z,87.73
2018-01-15T08:33:09.512Z,88.01
2018-01-15T08:34:09.600Z,88.01
2018-01-15T08:35:09.347Z,88.01
2018-01-15T08:36:09.305Z,88.1
2018-01-15T08:37:09.273Z,88.01
2018-01-15T08:38:09.248Z,87.92
2018-01-15T08:39:09.220Z,87.82
2018-01-15T08:40:09.197Z,87.45
2018-01-15T08:41:09.169Z,87.73
2018-01-15T08:42:09.226Z,87.73
2018-01-15T08:43:09.274Z,87.63
2018-01-15T08:44:09.089Z,87.35
2018-01-15T08:45:09.363Z,87.16
2018-01-15T08:46:09.034Z,87.16
2018-01-15T08:47:09.008Z,87.35
2018-01-15T08:48:08.989Z,87.25
2018-01-15T08:49:08.956Z,87.25
2018-01-15T08:50:08.684Z,87.68
2018-01-15T08:51:08.901Z,87.3
2018-01-15T08:52:08.878Z,86.72
2018-01-15T08:53:08.851Z,86.72
2018-01-15T08:54:08.846Z,86.82
2018-01-15T08:55:08.796Z,86.54
2018-01-15T08:56:08.524Z,86.72
2018-01-15T08:57:08.742Z,86.72
2018-01-15T08:58:08.468Z,86.82
2018-01-15T08:59:08.694Z,86.25
2018-01-15T09:00:08.416Z,86.54
2018-01-15T09:01:08.693Z,86.44
2018-01-15T09:02:08.611Z,85.87
2018-01-15T09:03:08.336Z,86.07
2018-01-15T09:04:08.561Z,85.97
2018-01-15T09:05:08.531Z,85.78
2018-01-15T09:06:08.258Z,85.78
2018-01-15T09:07:08.476Z,85.97
2018-01-15T09:08:08.454Z,85.87
2018-01-15T09:09:08.428Z,85.4
2018-01-15T09:10:08.397Z,85.68
2018-01-15T09:11:08.374Z,85.59
2018-01-15T09:12:08.346Z,85.4
2018-01-15T09:13:08.320Z,85.4
2018-01-15T09:14:08.340Z,85.21
2018-01-15T09:15:08.017Z,85.3
2018-01-15T09:16:08.288Z,85.21
2018-01-15T09:17:08.213Z,85.49
2018-01-15T09:18:07.935Z,85.49
2018-01-15T09:19:07.968Z,85.49
2018-01-15T09:20:08.164Z,85.59
2018-01-15T09:21:08.362Z,85.59
2018-01-15T09:22:07.830Z,85.68
2018-01-15T09:23:08.048Z,85.78
2018-01-15T09:24:08.027Z,85.21
2018-01-15T09:25:07.992Z,85.11
2018-01-15T09:26:07.718Z,84.92
2018-01-15T09:27:07.942Z,84.83
2018-01-15T09:28:07.911Z,84.92
2018-01-15T09:29:07.884Z,84.92
2018-01-15T09:30:07.611Z,85.02
2018-01-15T09:31:07.584Z,85.11
2018-01-15T09:32:07.556Z,84.74
2018-01-15T09:33:07.889Z,84.64
2018-01-15T09:34:07.501Z,84.83
2018-01-15T09:35:07.724Z,84.74
2018-01-15T09:36:08.539Z,84.83
2018-01-15T09:37:07.875Z,84.55
2018-01-15T09:38:07.645Z,84.26
2018-01-15T09:39:07.618Z,84.55
2018-01-15T09:40:07.592Z,84.4
2018-01-15T09:41:07.566Z,84.3
2018-01-15T09:42:07.300Z,84.21
2018-01-15T09:43:07.517Z,84.3
2018-01-15T09:44:07.244Z,84.3
2018-01-15T09:45:07.467Z,83.83
2018-01-15T09:46:07.195Z,83.73
2018-01-15T09:47:07.411Z,83.64
2018-01-15T09:48:07.388Z,83.45
2018-01-15T09:49:07.364Z,83.45
2018-01-15T09:50:07.088Z,83.26
2018-01-15T09:51:07.309Z,83.36
2018-01-15T09:52:07.283Z,82.59
2018-01-15T09:53:07.256Z,82.88
2018-01-15T09:54:06.984Z,82.69
2018-01-15T09:55:07.207Z,82.78
2018-01-15T09:56:06.931Z,82.4
2018-01-15T09:57:07.151Z,82.4
2018-01-15T09:58:07.124Z,82.21
2018-01-15T09:59:07.098Z,82.31
2018-01-15T10:00:06.829Z,82.4
2018-01-15T10:01:07.051Z,82.03
2018-01-15T10:02:07.026Z,82.03
2018-01-15T10:03:06.997Z,82.21
2018-01-15T10:04:06.995Z,82.12
2018-01-15T10:05:06.948Z,82.21
2018-01-15T10:06:06.924Z,82.12
2018-01-15T10:07:06.896Z,81.93
2018-01-15T10:08:06.626Z,81.45
2018-01-15T10:09:06.975Z,82.03
2018-01-15T10:10:06.823Z,81.55
2018-01-15T10:11:06.800Z,81.74
2018-01-15T10:12:06.769Z,82.12
2018-01-15T10:13:06.740Z,81.65
2018-01-15T10:14:06.716Z,81.45
2018-01-15T10:15:06.694Z,81.45
2018-01-15T10:16:06.666Z,80.79
2018-01-15T10:17:06.644Z,81.26
2018-01-15T10:18:06.617Z,80.83
2018-01-15T10:19:06.591Z,81.12
2018-01-15T10:20:06.317Z,81.02
2018-01-15T10:21:06.536Z,80.93
2018-01-15T10:22:06.512Z,80.64
2018-01-15T10:23:06.489Z,80.55
2018-01-15T10:24:06.462Z,80.45
2018-01-15T10:25:06.437Z,80.64
2018-01-15T10:26:06.414Z,80.64
2018-01-15T10:27:06.142Z,80.26
2018-01-15T10:28:06.461Z,80.45
2018-01-15T10:29:06.339Z,80.35
2018-01-15T10:30:06.315Z,80.64
2018-01-15T10:31:06.288Z,80.45
2018-01-15T10:32:06.013Z,80.26
2018-01-15T10:33:06.234Z,80.26
2018-01-15T10:34:06.211Z,80.35
2018-01-15T10:35:05.937Z,80.35
2018-01-15T10:36:06.160Z,80.35
2018-01-15T10:37:06.135Z,80.45
2018-01-15T10:38:06.108Z,80.64
2018-01-15T10:39:06.084Z,80.45
2018-01-15T10:40:06.057Z,80.83
2018-01-15T10:41:05.786Z,80.64
2018-01-15T10:42:05.763Z,80.74
2018-01-15T10:43:05.984Z,80.64
2018-01-15T10:44:05.713Z,80.83
2018-01-15T10:45:05.935Z,80.45
2018-01-15T10:46:05.908Z,80.45
2018-01-15T10:47:05.879Z,80.35
2018-01-15T10:48:05.867Z,80.26
2018-01-15T10:49:05.584Z,80.16
2018-01-15T10:50:05.560Z,80.45
2018-01-15T10:51:05.782Z,80.45
2018-01-15T10:52:05.757Z,80.26
2018-01-15T10:53:05.484Z,80.26
2018-01-15T10:54:05.459Z,80.26
2018-01-15T10:55:05.679Z,80.35
2018-01-15T10:56:05.907Z,80.26
2018-01-15T10:57:05.744Z,80.55
2018-01-15T10:58:05.607Z,80.35
2018-01-15T10:59:05.528Z,80.83
2018-01-15T11:00:05.307Z,80.83
2018-01-15T11:01:05.534Z,80.45
2018-01-15T11:02:05.506Z,80.74
2018-01-15T11:03:05.484Z,80.74
2018-01-15T11:04:05.455Z,80.64
2018-01-15T11:05:05.435Z,80.26
2018-01-15T11:06:05.409Z,80.45
2018-01-15T11:07:05.384Z,80.55
2018-01-15T11:08:05.355Z,80.45
2018-01-15T11:09:05.086Z,80.64
2018-01-15T11:10:05.310Z,80.64
2018-01-15T11:11:05.291Z,80.64
2018-01-15T11:12:05.033Z,80.45
2018-01-15T11:13:05.236Z,80.45
2018-01-15T11:14:05.307Z,80.45
2018-01-15T11:15:04.939Z,80.45
2018-01-15T11:16:05.157Z,80.64
2018-01-15T11:17:05.131Z,80.35
2018-01-15T11:18:05.110Z,80.35
2018-01-15T11:19:05.186Z,80.58
2018-01-15T11:20:04.814Z,80.3
2018-01-15T11:21:05.032Z,80.68
2018-01-15T11:22:05.008Z,80.96
2018-01-15T11:23:04.985Z,80.35
2018-01-15T11:24:04.775Z,80.4
2018-01-15T11:25:04.934Z,80.49
2018-01-15T11:26:04.969Z,80.3
2018-01-15T11:27:04.643Z,80.02
2018-01-15T11:28:04.866Z,79.83
2018-01-15T11:29:04.837Z,79.54
2018-01-15T11:30:04.810Z,80.02
2018-01-15T11:31:04.543Z,80.02
2018-01-15T11:32:04.767Z,80.02
2018-01-15T11:33:04.739Z,79.54
2018-01-15T11:34:04.714Z,79.83
2018-01-15T11:35:04.688Z,79.73
2018-01-15T11:36:04.672Z,79.44
2018-01-15T11:37:04.642Z,79.73
2018-01-15T11:38:04.618Z,79.92
2018-01-15T11:39:04.594Z,79.63
2018-01-15T11:40:04.321Z,79.83
2018-01-15T11:41:04.544Z,79.63
2018-01-15T11:42:04.517Z,79.83
2018-01-15T11:43:04.251Z,79.73
2018-01-15T11:44:04.469Z,79.73
2018-01-15T11:45:04.445Z,79.73
2018-01-15T11:46:04.420Z,79.73
2018-01-15T11:47:04.397Z,79.63
2018-01-15T11:48:04.374Z,79.54
2018-01-15T11:49:04.349Z,79.44
2018-01-15T11:50:04.326Z,80.11
2018-01-15T11:51:04.296Z,80.11
2018-01-15T11:52:04.275Z,79.73
2018-01-15T11:53:04.264Z,79.83
2018-01-15T11:54:03.981Z,79.92
2018-01-15T11:55:04.226Z,79.83
2018-01-15T11:56:04.179Z,79.83
2018-01-15T11:57:04.153Z,79.83
2018-01-15T11:58:04.128Z,79.83
2018-01-15T11:59:04.105Z,80.11
2018-01-15T12:00:03.833Z,80.02
2018-01-15T12:01:04.057Z,79.73
2018-01-15T12:02:04.028Z,79.92
2018-01-15T12:03:04.003Z,79.83
2018-01-15T12:04:03.979Z,79.92
2018-01-15T12:05:03.712Z,79.73
2018-01-15T12:06:03.932Z,79.73
2018-01-15T12:07:03.905Z,80.21
2018-01-15T12:08:03.635Z,79.73
2018-01-15T12:09:03.860Z,79.83
2018-01-15T12:10:03.587Z,79.92
2018-01-15T12:11:03.815Z,80.02
2018-01-15T12:12:03.787Z,80.3
2018-01-15T12:13:03.756Z,80.3
2018-01-15T12:14:03.487Z,80.49
2018-01-15T12:15:03.707Z,80.4
2018-01-15T12:16:03.439Z,80.68
2018-01-15T12:17:03.657Z,80.68
2018-01-15T12:18:03.639Z,80.68
2018-01-15T12:19:03.611Z,81.16
2018-01-15T12:20:03.593Z,81.16
2018-01-15T12:21:03.633Z,81.63
2018-01-15T12:22:03.291Z,81.63
2018-01-15T12:23:03.548Z,81.63
2018-01-15T12:24:03.241Z,82.1
2018-01-15T12:25:03.460Z,81.92
2018-01-15T12:26:03.983Z,81.82
2018-01-15T12:27:03.416Z,82.01
2018-01-15T12:28:03.139Z,82.2
2018-01-15T12:29:03.365Z,81.82
2018-01-15T12:30:03.400Z,82.49
2018-01-15T12:31:03.314Z,82.1
2018-01-15T12:32:03.287Z,82.29
2018-01-15T12:33:03.264Z,82.29
2018-01-15T12:34:03.237Z,82.58
2018-01-15T12:35:03.219Z,82.77
2018-01-15T12:36:03.193Z,82.49
2018-01-15T12:37:03.170Z,82.58
2018-01-15T12:38:03.390Z,82.87
2018-01-15T12:39:03.111Z,83.15
2018-01-15T12:40:03.095Z,82.87
2018-01-15T12:41:02.818Z,82.58
2018-01-15T12:42:03.041Z,83.53
2018-01-15T12:43:03.015Z,83.25
2018-01-15T12:44:02.988Z,83.25
2018-01-15T12:45:02.964Z,83.25
2018-01-15T12:46:02.939Z,83.34
2018-01-15T12:47:02.915Z,83.25
2018-01-15T12:48:02.888Z,83.25
2018-01-15T12:49:02.866Z,83.53
2018-01-15T12:50:02.838Z,83.44
2018-01-15T12:51:02.815Z,83.53
2018-01-15T12:52:02.790Z,83.53
2018-01-15T12:53:02.767Z,83.62
2018-01-15T12:54:02.749Z,83.72
2018-01-15T12:55:02.718Z,83.72
2018-01-15T12:56:02.692Z,83.53